createdAt,value
2022-11-17T00:00:53.036Z,97807.98
2022-11-17T00:05:56.118Z,97803.41
2022-11-17T00:11:02.633Z,97803.30
2022-11-17T00:16:05.993Z,97799.77
2022-11-17T00:21:23.895Z,97799.36
2022-11-17T00:26:35.119Z,97802.39
2022-11-17T00:31:57.387Z,97816.09
2022-11-17T00:37:00.386Z,97817.13
2022-11-17T00:42:03.919Z,97820.58
2022-11-17T00:47:06.934Z,97828.64
2022-11-17T00:52:10.048Z,97826.40
2022-11-17T00:57:13.056Z,97827.66
2022-11-17T01:02:16.244Z,97824.25
2022-11-17T01:07:19.494Z,97824.25
2022-11-17T01:12:22.735Z,97816.56
2022-11-17T01:17:25.709Z,97814.02
2022-11-17T01:22:28.671Z,97814.15
2022-11-17T01:27:31.657Z,97806.23
2022-11-17T01:32:34.607Z,97800.10
2022-11-17T01:37:37.756Z,97788.63
2022-11-17T01:42:40.841Z,97784.24
2022-11-17T01:47:54.401Z,97788.73
2022-11-17T01:53:01.227Z,97791.58
2022-11-17T01:58:12.365Z,97794.98
2022-11-17T02:03:15.730Z,97796.33
2022-11-17T02:08:22.455Z,97800.27
2022-11-17T02:13:25.526Z,97807.70
2022-11-17T02:18:28.850Z,97807.93
2022-11-17T02:23:51.996Z,97802.23
2022-11-17T02:29:03.699Z,97807.48
2022-11-17T02:34:18.727Z,97800.61
2022-11-17T02:39:26.505Z,97797.41
2022-11-17T02:44:39.935Z,97790.00
2022-11-17T02:49:55.631Z,97778.24
2022-11-17T02:55:04.151Z,97765.73
2022-11-17T03:00:10.396Z,97761.05
2022-11-17T03:05:27.855Z,97766.03
2022-11-17T03:10:49.955Z,97774.95
2022-11-17T03:16:08.225Z,97790.27
2022-11-17T03:21:22.167Z,97798.38
2022-11-17T03:26:38.207Z,97791.13
2022-11-17T03:31:43.393Z,97794.77
2022-11-17T03:36:51.278Z,97792.16
2022-11-17T03:42:00.101Z,97793.55
2022-11-17T03:47:08.798Z,97791.85
2022-11-17T03:52:12.013Z,97788.76
2022-11-17T03:57:53.260Z,97794.28
2022-11-17T04:02:59.031Z,97796.92
2022-11-17T04:08:02.173Z,97797.70
2022-11-17T04:13:23.850Z,97797.39
2022-11-17T04:18:27.250Z,97796.75
2022-11-17T04:23:30.175Z,97791.60
2022-11-17T04:28:38.214Z,97793.06
2022-11-17T04:33:45.617Z,97800.12
2022-11-17T04:38:51.005Z,97807.00
2022-11-17T04:43:54.630Z,97806.27
2022-11-17T04:48:58.402Z,97813.06
2022-11-17T04:54:02.345Z,97815.11
2022-11-17T04:59:05.449Z,97802.31
2022-11-17T05:04:11.125Z,97803.77
2022-11-17T05:09:15.139Z,97810.48
2022-11-17T05:14:20.892Z,97810.31
2022-11-17T05:19:24.921Z,97813.56
2022-11-17T05:24:28.185Z,97811.97
2022-11-17T05:29:31.149Z,97814.66
2022-11-17T05:34:34.109Z,97813.77
2022-11-17T05:39:37.158Z,97819.49
2022-11-17T05:44:40.221Z,97825.65
2022-11-17T05:49:43.323Z,97824.34
2022-11-17T05:54:46.217Z,97833.53
2022-11-17T05:59:55.050Z,97832.66
2022-11-17T06:04:59.017Z,97833.73
2022-11-17T06:10:03.560Z,97829.61
2022-11-17T06:15:06.871Z,97836.10
2022-11-17T06:20:17.350Z,97852.98
2022-11-17T06:25:20.925Z,97867.18
2022-11-17T06:30:23.933Z,97870.00
2022-11-17T06:35:28.941Z,97878.14
2022-11-17T06:40:32.124Z,97874.19
2022-11-17T06:45:44.046Z,97880.12
2022-11-17T06:50:48.526Z,97879.36
2022-11-17T06:55:59.326Z,97891.46
2022-11-17T07:01:06.086Z,97895.23
2022-11-17T07:06:11.173Z,97897.44
2022-11-17T07:11:16.709Z,97906.34
2022-11-17T07:16:23.826Z,97897.01
2022-11-17T07:21:27.356Z,97889.52
2022-11-17T07:26:30.517Z,97894.79
2022-11-17T07:31:36.682Z,97896.18
2022-11-17T07:36:39.609Z,97897.75
2022-11-17T07:41:42.688Z,97899.41
2022-11-17T07:46:45.791Z,97905.75
2022-11-17T07:51:48.801Z,97911.65
2022-11-17T07:56:51.786Z,97917.29
2022-11-17T08:01:54.753Z,97913.92
2022-11-17T08:06:57.873Z,97917.81
2022-11-17T08:12:00.991Z,97913.98
2022-11-17T08:17:04.540Z,97905.48
2022-11-17T08:22:07.633Z,97909.73
2022-11-17T08:27:10.628Z,97905.41
2022-11-17T08:32:13.681Z,97907.86
2022-11-17T08:37:16.599Z,97907.75
2022-11-17T08:42:19.531Z,97910.25
2022-11-17T08:47:22.622Z,97922.66
2022-11-17T08:52:28.164Z,97925.20
2022-11-17T08:57:31.993Z,97923.86
2022-11-17T09:02:34.986Z,97932.95
2022-11-17T09:07:38.015Z,97939.22
2022-11-17T09:12:41.347Z,97939.27
2022-11-17T09:17:47.833Z,97937.59
2022-11-17T09:22:50.954Z,97927.70
2022-11-17T09:27:54.128Z,97925.64
2022-11-17T09:32:58.013Z,97925.38
2022-11-17T09:38:01.890Z,97927.02
2022-11-17T09:43:16.474Z,97924.59
2022-11-17T09:48:41.166Z,97931.14
2022-11-17T09:54:13.823Z,97934.93
2022-11-17T09:59:20.958Z,97930.98
2022-11-17T10:04:29.583Z,97936.17
2022-11-17T10:09:44.363Z,97931.23
2022-11-17T10:14:51.297Z,97931.60
2022-11-17T10:19:54.367Z,97928.99
2022-11-17T10:24:58.841Z,97929.77
2022-11-17T10:30:07.317Z,97929.19
2022-11-17T10:35:31.166Z,97917.81
2022-11-17T10:40:39.981Z,97922.36
2022-11-17T10:45:56.695Z,97928.02
2022-11-17T10:51:09.281Z,97929.48
2022-11-17T10:56:16.039Z,97931.78
2022-11-17T11:01:32.531Z,97933.25
2022-11-17T11:06:35.945Z,97937.44
2022-11-17T11:11:56.488Z,97937.99
2022-11-17T11:16:59.895Z,97937.49
2022-11-17T11:22:45.906Z,97933.95
2022-11-17T11:28:14.959Z,97934.40
2022-11-17T11:33:33.417Z,97933.83
2022-11-17T11:38:55.308Z,97943.85
2022-11-17T11:44:19.852Z,97941.45
2022-11-17T11:49:54.549Z,97942.73
2022-11-17T11:55:05.871Z,97939.60
2022-11-17T12:00:16.841Z,97941.02
2022-11-17T12:05:29.334Z,97944.60
2022-11-17T12:10:38.832Z,97944.14
2022-11-17T12:15:41.870Z,97926.02
2022-11-17T12:20:49.908Z,97915.15
2022-11-17T12:25:57.403Z,97917.37
2022-11-17T12:31:11.710Z,97922.74
2022-11-17T12:36:29.715Z,97928.52
2022-11-17T12:41:48.935Z,97939.29
2022-11-17T12:47:02.778Z,97944.94
2022-11-17T12:52:15.718Z,97948.36
2022-11-17T12:57:30.475Z,97951.46
2022-11-17T13:02:53.282Z,97953.67
2022-11-17T13:08:20.528Z,97956.42
2022-11-17T13:13:24.712Z,97960.59
2022-11-17T13:18:33.243Z,97970.42
2022-11-17T13:23:44.575Z,97964.52
2022-11-17T13:28:49.292Z,97959.71
2022-11-17T13:34:10.443Z,97957.39
2022-11-17T13:39:17.150Z,97965.31
2022-11-17T13:44:25.619Z,97974.58
2022-11-17T13:49:39.374Z,97982.60
2022-11-17T13:54:44.914Z,97976.48
2022-11-17T13:59:48.132Z,97977.37
2022-11-17T14:05:08.187Z,97978.48
2022-11-17T14:10:20.979Z,97980.55
2022-11-17T14:15:49.130Z,97977.25
2022-11-17T14:21:05.308Z,97965.67
2022-11-17T14:26:34.357Z,97963.75
2022-11-17T14:31:37.305Z,97957.73
2022-11-17T14:36:41.284Z,97967.46
2022-11-17T14:41:45.753Z,97973.08
2022-11-17T14:46:48.832Z,97971.39
2022-11-17T14:51:51.881Z,97964.71
2022-11-17T14:56:54.810Z,97960.73
2022-11-17T15:01:57.877Z,97962.30
2022-11-17T15:07:00.940Z,97958.44
2022-11-17T15:12:04.298Z,97958.32
2022-11-17T15:17:11.171Z,97949.73
2022-11-17T15:22:17.112Z,97942.94
2022-11-17T15:27:20.059Z,97939.50
2022-11-17T15:32:22.990Z,97932.87
2022-11-17T15:37:26.049Z,97932.33
2022-11-17T15:42:29.057Z,97922.48
2022-11-17T15:47:32.276Z,97921.98
2022-11-17T15:52:57.066Z,97923.90
2022-11-17T15:57:58.282Z,97930.17
2022-11-17T16:03:01.976Z,97927.99
2022-11-17T16:08:05.208Z,97927.46
2022-11-17T16:13:08.195Z,97919.92
2022-11-17T16:18:11.200Z,97917.64
2022-11-17T16:23:15.486Z,97914.58
2022-11-17T16:28:18.464Z,97914.33
2022-11-17T16:33:21.557Z,97915.23
2022-11-17T16:38:24.570Z,97911.45
2022-11-17T16:43:29.318Z,97911.13
2022-11-17T16:48:33.874Z,97916.56
2022-11-17T16:53:36.914Z,97917.37
2022-11-17T16:58:40.355Z,97916.67
2022-11-17T17:03:43.802Z,97923.02
2022-11-17T17:08:46.870Z,97934.91
2022-11-17T17:13:50.144Z,97942.37
2022-11-17T17:18:59.655Z,97942.67
2022-11-17T17:24:03.377Z,97944.38
2022-11-17T17:29:07.538Z,97950.23
2022-11-17T17:34:12.224Z,97954.17
2022-11-17T17:39:18.322Z,97956.29
2022-11-17T17:44:21.513Z,97946.39
2022-11-17T17:49:24.458Z,97937.96
2022-11-17T17:54:27.485Z,97927.28
2022-11-17T17:59:30.457Z,97932.02
2022-11-17T18:04:33.584Z,97922.19
2022-11-17T18:09:36.581Z,97922.41
2022-11-17T18:14:41.515Z,97921.23
2022-11-17T18:19:44.472Z,97918.58
2022-11-17T18:24:47.419Z,97931.09
2022-11-17T18:29:50.425Z,97933.27
2022-11-17T18:34:53.367Z,97935.65
2022-11-17T18:39:56.559Z,97929.45
2022-11-17T18:44:59.548Z,97922.54
2022-11-17T18:50:02.464Z,97915.59
2022-11-17T18:55:06.070Z,97908.72
2022-11-17T19:00:09.637Z,97902.34
2022-11-17T19:05:12.639Z,97891.92
2022-11-17T19:10:16.574Z,97892.48
2022-11-17T19:15:19.511Z,97891.88
2022-11-17T19:20:22.676Z,97895.98
2022-11-17T19:25:25.614Z,97887.32
2022-11-17T19:30:28.606Z,97880.63
2022-11-17T19:35:31.555Z,97864.86
2022-11-17T19:40:35.017Z,97858.75
2022-11-17T19:45:37.936Z,97862.47
2022-11-17T19:50:40.845Z,97870.52
2022-11-17T19:55:43.804Z,97878.93
2022-11-17T20:00:48.776Z,97886.52
2022-11-17T20:05:51.778Z,97894.69
2022-11-17T20:11:03.180Z,97892.73
2022-11-17T20:16:11.945Z,97887.98
2022-11-17T20:21:15.518Z,97895.87
2022-11-17T20:26:21.441Z,97898.14
2022-11-17T20:31:27.209Z,97897.66
2022-11-17T20:36:32.908Z,97901.13
2022-11-17T20:41:35.989Z,97897.63
2022-11-17T20:46:39.027Z,97889.34
2022-11-17T20:51:42.180Z,97888.34
2022-11-17T20:56:45.119Z,97884.77
2022-11-17T21:01:49.430Z,97877.79
2022-11-17T21:06:52.527Z,97875.73
2022-11-17T21:11:58.456Z,97873.05
2022-11-17T21:17:01.753Z,97863.80
2022-11-17T21:22:04.868Z,97861.77
2022-11-17T21:27:07.894Z,97858.52
2022-11-17T21:32:10.941Z,97856.05
2022-11-17T21:37:13.945Z,97838.04
2022-11-17T21:42:16.911Z,97824.98
2022-11-17T21:47:21.655Z,97815.73
2022-11-17T21:52:24.585Z,97806.81
2022-11-17T21:57:27.556Z,97805.50
2022-11-17T22:02:30.505Z,97807.63
2022-11-17T22:07:33.520Z,97801.44
2022-11-17T22:12:36.487Z,97790.20
2022-11-17T22:17:39.456Z,97786.66
2022-11-17T22:22:42.453Z,97797.15
2022-11-17T22:27:45.391Z,97790.31
2022-11-17T22:32:48.378Z,97792.59
2022-11-17T22:37:51.337Z,97802.09
2022-11-17T22:42:54.494Z,97802.38
2022-11-17T22:47:57.397Z,97796.52
2022-11-17T22:53:01.361Z,97794.15
2022-11-17T22:58:04.495Z,97790.30
2022-11-17T23:03:07.476Z,97782.50
2022-11-17T23:08:10.455Z,97777.34
2022-11-17T23:13:13.518Z,97773.58
2022-11-17T23:18:16.613Z,97770.31
2022-11-17T23:23:19.671Z,97766.09
2022-11-17T23:28:22.633Z,97763.91
2022-11-17T23:33:25.872Z,97760.92
2022-11-17T23:38:31.076Z,97753.20
2022-11-17T23:43:34.194Z,97749.31
2022-11-17T23:48:37.429Z,97747.32
2022-11-17T23:53:40.725Z,97738.73
2022-11-17T23:58:44.307Z,97734.80
